Time;durP1;ratioP1;P1;durP2;ratioP2;P2;SDS_P1;SDS_P2;PMS_P1;PMS_P2;Temp;Humidity;BMP_temperature;BMP_pressure;BME280_temperature;BME280_humidity;BME280_pressure;Samples;Min_cycle;Max_cycle;Signal;HPM_P1;HPM_P2
2021/07/25 00:00:07;;;;;;;3.38;2.53;;;24.20;99.90;;;;;;5052665;28;20085;-66
2021/07/25 00:02:34;;;;;;;3.28;2.20;;;24.10;99.90;;;;;;5052715;28;20033;-67
2021/07/25 00:05:00;;;;;;;3.38;2.70;;;24.10;99.90;;;;;;5052327;28;20059;-67
2021/07/25 00:07:26;;;;;;;3.28;2.83;;;24.10;99.90;;;;;;5052680;28;20151;-67
2021/07/25 00:09:52;;;;;;;3.38;2.42;;;24.10;99.90;;;;;;5052752;28;20074;-68
2021/07/25 00:12:17;;;;;;;2.50;2.15;;;24.10;99.90;;;;;;5053040;28;20044;-67
2021/07/25 00:14:43;;;;;;;2.92;2.50;;;24.10;99.90;;;;;;5052474;28;20100;-67
2021/07/25 00:17:12;;;;;;;3.40;2.28;;;24.10;99.90;;;;;;5052501;28;20023;-68
2021/07/25 00:19:38;;;;;;;2.83;2.25;;;24.10;99.90;;;;;;5052468;28;20496;-66
2021/07/25 00:22:05;;;;;;;3.80;2.50;;;24.10;99.90;;;;;;5050756;28;20040;-66
2021/07/25 00:24:34;;;;;;;2.97;2.42;;;24.10;99.90;;;;;;5052483;28;20112;-68
2021/07/25 00:27:00;;;;;;;2.83;2.30;;;24.10;99.90;;;;;;5052132;28;20017;-67
2021/07/25 00:29:30;;;;;;;2.88;2.30;;;24.10;99.90;;;;;;5052393;28;20358;-68
2021/07/25 00:32:00;;;;;;;3.63;2.40;;;24.00;99.90;;;;;;5052088;28;20092;-66
2021/07/25 00:34:30;;;;;;;3.72;2.70;;;24.00;99.90;;;;;;5050854;28;20032;-67
2021/07/25 00:36:56;;;;;;;2.85;2.30;;;24.00;99.90;;;;;;5050848;28;20024;-67
2021/07/25 00:39:22;;;;;;;3.53;2.45;;;24.00;99.90;;;;;;5052120;28;20104;-67
2021/07/25 00:41:48;;;;;;;3.42;2.63;;;24.00;99.90;;;;;;5052262;28;20103;-66
2021/07/25 00:44:13;;;;;;;3.58;2.88;;;23.90;99.90;;;;;;5051828;28;20435;-67
2021/07/25 00:46:40;;;;;;;3.47;2.30;;;23.90;99.90;;;;;;5051992;28;20037;-66
2021/07/25 00:49:06;;;;;;;3.35;2.50;;;24.00;99.90;;;;;;5051819;28;20056;-67
2021/07/25 00:51:33;;;;;;;2.65;2.38;;;23.90;99.90;;;;;;5051965;28;20063;-66
2021/07/25 00:53:59;;;;;;;3.95;2.60;;;23.90;99.90;;;;;;5051682;28;20381;-67
2021/07/25 00:56:25;;;;;;;3.10;2.53;;;23.90;99.90;;;;;;5051789;28;20021;-67
2021/07/25 00:58:50;;;;;;;2.72;2.42;;;23.90;99.90;;;;;;5051812;28;20078;-67
2021/07/25 01:01:21;;;;;;;3.75;2.88;;;23.90;99.90;;;;;;5051800;28;20427;-67
2021/07/25 01:03:56;;;;;;;3.47;2.40;;;23.90;99.90;;;;;;5052097;28;20060;-67
2021/07/25 01:06:36;;;;;;;2.85;2.45;;;23.80;99.90;;;;;;5051781;28;20033;-66
2021/07/25 01:09:26;;;;;;;3.28;2.55;;;23.90;99.90;;;;;;5051655;28;20036;-67
2021/07/25 01:11:57;;;;;;;4.13;2.80;;;23.80;99.90;;;;;;5041471;28;20036;-65
2021/07/25 01:14:32;;;;;;;3.42;2.63;;;23.80;99.90;;;;;;5051834;28;20021;-68
2021/07/25 01:17:33;;;;;;;3.00;2.45;;;23.80;99.90;;;;;;5051681;28;20373;-67
2021/07/25 01:20:05;;;;;;;3.08;2.33;;;23.80;99.90;;;;;;5040104;28;20082;-68
2021/07/25 01:22:43;;;;;;;3.72;2.65;;;23.80;99.90;;;;;;5051375;28;20068;-67
2021/07/25 01:25:12;;;;;;;4.68;2.72;;;23.80;99.90;;;;;;5051391;28;20021;-68
2021/07/25 01:27:58;;;;;;;3.35;2.45;;;23.70;99.90;;;;;;5051850;28;20032;-67
2021/07/25 01:30:31;;;;;;;2.83;2.17;;;23.80;99.90;;;;;;5051680;28;20025;-66
2021/07/25 01:33:03;;;;;;;3.15;2.47;;;23.80;99.90;;;;;;5051631;28;20071;-67
2021/07/25 01:35:31;;;;;;;3.28;2.75;;;23.70;99.90;;;;;;5051498;28;20029;-68
2021/07/25 01:37:57;;;;;;;4.07;2.60;;;23.70;99.90;;;;;;5051323;28;20033;-67
2021/07/25 01:40:24;;;;;;;2.65;2.17;;;23.70;99.90;;;;;;5051548;28;20028;-67
2021/07/25 01:42:54;;;;;;;3.63;2.67;;;23.70;99.90;;;;;;5052998;28;20377;-66
2021/07/25 01:45:20;;;;;;;3.30;2.42;;;23.70;99.90;;;;;;5055757;28;20484;-67
2021/07/25 01:47:46;;;;;;;4.13;2.38;;;23.70;99.90;;;;;;5055413;28;20036;-66
2021/07/25 01:50:14;;;;;;;3.58;2.85;;;23.70;99.90;;;;;;5053412;28;20048;-66
2021/07/25 01:52:40;;;;;;;4.10;2.97;;;23.70;99.90;;;;;;5055115;28;20037;-66
2021/07/25 01:55:07;;;;;;;3.83;2.65;;;23.70;99.90;;;;;;5054962;28;20021;-66
2021/07/25 01:57:32;;;;;;;3.20;2.38;;;23.70;99.90;;;;;;5055133;28;20033;-66
2021/07/25 01:59:58;;;;;;;3.38;2.65;;;23.70;99.90;;;;;;5054866;28;20017;-68
2021/07/25 02:02:23;;;;;;;4.28;2.78;;;23.70;99.90;;;;;;5054904;28;20384;-66
2021/07/25 02:04:49;;;;;;;3.30;2.50;;;23.60;99.90;;;;;;5055298;28;20095;-67
2021/07/25 02:07:15;;;;;;;3.38;2.30;;;23.60;99.90;;;;;;5055253;28;20362;-68
2021/07/25 02:09:40;;;;;;;2.72;2.17;;;23.60;99.90;;;;;;5055010;28;20029;-67
2021/07/25 02:12:07;;;;;;;2.70;2.15;;;23.60;99.90;;;;;;5054876;28;20025;-66
2021/07/25 02:14:34;;;;;;;3.47;2.55;;;23.60;99.90;;;;;;5055100;28;20366;-65
2021/07/25 02:17:01;;;;;;;4.57;2.80;;;23.60;99.90;;;;;;5054848;28;20053;-67
2021/07/25 02:19:27;;;;;;;3.25;2.47;;;23.60;99.90;;;;;;5054925;28;20456;-66
2021/07/25 02:21:53;;;;;;;4.05;2.20;;;23.60;99.90;;;;;;5054391;28;20029;-66
2021/07/25 02:24:22;;;;;;;3.15;2.50;;;23.60;99.90;;;;;;5055105;28;20025;-66
2021/07/25 02:26:49;;;;;;;2.95;2.10;;;23.60;99.90;;;;;;5054904;28;20025;-65
2021/07/25 02:29:15;;;;;;;3.67;2.42;;;23.60;99.90;;;;;;5054629;28;20111;-66
2021/07/25 02:31:41;;;;;;;3.92;2.40;;;23.60;99.90;;;;;;5054909;28;20123;-65
2021/07/25 02:34:07;;;;;;;3.63;2.25;;;23.50;99.90;;;;;;5054159;28;20404;-65
2021/07/25 02:36:32;;;;;;;4.00;2.65;;;23.50;99.90;;;;;;5054235;28;20025;-65
2021/07/25 02:38:58;;;;;;;3.88;2.50;;;23.50;99.90;;;;;;5054306;28;20103;-65
2021/07/25 02:41:24;;;;;;;3.13;2.53;;;23.50;99.90;;;;;;5054422;28;20057;-67
2021/07/25 02:43:50;;;;;;;2.78;2.00;;;23.50;99.90;;;;;;5054608;28;20040;-66
2021/07/25 02:46:16;;;;;;;2.83;2.05;;;23.50;99.90;;;;;;5054596;28;20032;-65
2021/07/25 02:48:42;;;;;;;2.97;2.30;;;23.50;99.90;;;;;;5054310;28;20496;-65
2021/07/25 02:51:07;;;;;;;3.42;2.10;;;23.50;99.90;;;;;;5053935;28;20033;-66
2021/07/25 02:53:33;;;;;;;5.13;2.40;;;23.40;99.90;;;;;;5053072;28;20469;-66
2021/07/25 02:55:59;;;;;;;3.17;2.30;;;23.50;99.90;;;;;;5053591;28;20025;-66
2021/07/25 02:58:25;;;;;;;4.03;2.40;;;23.40;99.90;;;;;;5054181;28;20017;-65
2021/07/25 03:00:51;;;;;;;2.90;2.33;;;23.50;99.90;;;;;;5053923;28;20033;-66
2021/07/25 03:03:16;;;;;;;3.08;2.00;;;23.40;99.90;;;;;;5053944;28;20119;-66
2021/07/25 03:05:42;;;;;;;2.20;1.77;;;23.40;99.90;;;;;;5053688;28;20469;-65
2021/07/25 03:08:08;;;;;;;3.15;2.00;;;23.40;99.90;;;;;;5053624;28;20032;-65
2021/07/25 03:10:34;;;;;;;3.00;2.20;;;23.40;99.90;;;;;;5053900;28;20115;-67
2021/07/25 03:12:59;;;;;;;3.15;2.15;;;23.40;99.90;;;;;;5053602;28;20044;-65
2021/07/25 03:15:25;;;;;;;5.53;2.65;;;23.40;99.90;;;;;;5053776;28;20017;-64
2021/07/25 03:17:52;;;;;;;3.58;2.40;;;23.40;99.90;;;;;;5053716;28;20100;-66
2021/07/25 03:20:18;;;;;;;3.47;2.10;;;23.40;99.90;;;;;;5054109;28;20036;-67
2021/07/25 03:22:44;;;;;;;3.95;2.10;;;23.40;99.90;;;;;;5053484;28;20040;-65
2021/07/25 03:25:10;;;;;;;3.78;1.90;;;23.40;99.90;;;;;;5053330;28;20025;-65
2021/07/25 03:27:36;;;;;;;3.17;1.98;;;23.40;99.90;;;;;;5053499;28;20078;-65
2021/07/25 03:30:02;;;;;;;3.22;2.30;;;23.40;99.90;;;;;;5051762;28;20428;-65
2021/07/25 03:32:28;;;;;;;3.10;1.90;;;23.40;99.90;;;;;;5053441;28;20017;-65
2021/07/25 03:34:54;;;;;;;3.35;2.10;;;23.40;99.90;;;;;;5053138;28;20496;-66
2021/07/25 03:37:19;;;;;;;3.60;2.10;;;23.30;99.90;;;;;;5053271;28;20063;-65
2021/07/25 03:39:47;;;;;;;3.63;2.40;;;23.30;99.90;;;;;;5053472;28;20028;-65
2021/07/25 03:42:14;;;;;;;4.50;2.20;;;23.30;99.90;;;;;;5052918;28;20040;-65
2021/07/25 03:44:40;;;;;;;2.88;1.98;;;23.30;99.90;;;;;;5053222;28;20037;-66
2021/07/25 03:47:07;;;;;;;3.03;1.92;;;23.30;99.90;;;;;;5052812;28;20028;-66
2021/07/25 03:49:32;;;;;;;3.35;2.25;;;23.30;99.90;;;;;;5052062;28;20090;-66
2021/07/25 03:51:58;;;;;;;3.67;2.25;;;23.30;99.90;;;;;;5051669;28;20021;-67
2021/07/25 03:54:24;;;;;;;2.83;2.13;;;23.30;99.90;;;;;;5053017;28;20507;-65
2021/07/25 03:56:50;;;;;;;4.00;2.00;;;23.30;99.90;;;;;;5053256;28;20021;-66
2021/07/25 03:59:16;;;;;;;2.85;2.17;;;23.30;99.90;;;;;;5053281;28;20024;-66
2021/07/25 04:01:42;;;;;;;2.65;2.08;;;23.30;99.90;;;;;;5052847;28;20434;-66
2021/07/25 04:04:08;;;;;;;3.17;2.35;;;23.30;99.90;;;;;;5051023;28;20041;-66
2021/07/25 04:06:33;;;;;;;4.00;2.17;;;23.30;99.90;;;;;;5052438;28;20071;-67
2021/07/25 04:08:59;;;;;;;3.15;2.05;;;23.30;99.90;;;;;;5052416;28;20474;-65
2021/07/25 04:11:25;;;;;;;3.13;2.20;;;23.30;99.90;;;;;;5052794;28;20110;-64
2021/07/25 04:13:51;;;;;;;3.78;1.92;;;23.20;99.90;;;;;;5052348;28;20029;-64
2021/07/25 04:16:17;;;;;;;3.15;2.25;;;23.30;99.90;;;;;;5052875;28;20029;-65
2021/07/25 04:18:43;;;;;;;2.85;1.98;;;23.20;99.90;;;;;;5052819;28;20509;-66
2021/07/25 04:21:09;;;;;;;2.30;1.77;;;23.20;99.90;;;;;;5051815;28;20088;-65
2021/07/25 04:23:37;;;;;;;3.45;2.10;;;23.20;99.90;;;;;;5052407;28;20040;-67
2021/07/25 04:26:03;;;;;;;3.17;2.00;;;23.20;99.90;;;;;;5052205;28;20027;-66
2021/07/25 04:28:29;;;;;;;3.00;2.10;;;23.20;99.90;;;;;;5052107;28;20033;-65
2021/07/25 04:30:55;;;;;;;4.47;2.30;;;23.20;99.90;;;;;;5050672;28;20430;-67
2021/07/25 04:33:21;;;;;;;2.88;2.10;;;23.30;99.90;;;;;;5051024;28;20048;-68
2021/07/25 04:35:47;;;;;;;2.92;2.03;;;23.20;99.90;;;;;;5052392;28;20028;-66
2021/07/25 04:38:13;;;;;;;2.65;1.92;;;23.20;99.90;;;;;;5051936;28;20029;-67
2021/07/25 04:40:40;;;;;;;2.72;2.10;;;23.20;99.90;;;;;;5052170;28;20563;-66
2021/07/25 04:43:08;;;;;;;2.20;1.80;;;23.20;99.90;;;;;;5051802;28;20044;-66
2021/07/25 04:45:46;;;;;;;2.95;1.77;;;23.30;99.90;;;;;;5052020;28;20405;-66
2021/07/25 04:48:28;;;;;;;3.40;2.00;;;23.20;99.90;;;;;;5051746;28;20172;-67
2021/07/25 04:51:02;;;;;;;2.70;1.77;;;23.20;99.90;;;;;;5051788;28;20374;-67
2021/07/25 04:53:28;;;;;;;;;;;23.20;99.90;;;;;;5052493;28;20078;-67
2021/07/25 04:56:01;;;;;;;2.92;1.75;;;23.20;99.90;;;;;;5067231;28;19991;-66
2021/07/25 04:58:37;;;;;;;1.92;1.67;;;23.20;99.90;;;;;;5051752;28;20032;-65
2021/07/25 05:01:03;;;;;;;3.30;1.98;;;23.20;99.90;;;;;;5049907;28;20033;-66
2021/07/25 05:03:32;;;;;;;2.53;1.90;;;23.20;99.90;;;;;;5051841;28;20033;-67
2021/07/25 05:05:57;;;;;;;2.88;2.20;;;23.20;99.90;;;;;;5051225;28;20052;-67
2021/07/25 05:08:23;;;;;;;2.95;2.25;;;23.20;99.90;;;;;;5050526;28;20126;-67
2021/07/25 05:11:08;;;;;;;2.95;2.00;;;23.20;99.90;;;;;;5051926;28;20028;-67
2021/07/25 05:13:36;;;;;;;2.40;2.05;;;23.20;99.90;;;;;;5051676;28;20013;-67
2021/07/25 05:16:07;;;;;;;2.15;1.70;;;23.20;99.90;;;;;;5051276;28;20385;-67
2021/07/25 05:18:39;;;;;;;4.80;2.28;;;23.20;99.90;;;;;;5051025;28;20021;-67
2021/07/25 05:21:17;;;;;;;3.75;2.03;;;23.20;99.90;;;;;;5051152;28;20024;-67
2021/07/25 05:23:45;;;;;;;3.22;2.03;;;23.20;99.90;;;;;;5051437;28;20039;-66
2021/07/25 05:26:12;;;;;;;2.40;2.08;;;23.20;99.90;;;;;;5050249;28;20384;-65
2021/07/25 05:28:38;;;;;;;2.88;2.15;;;23.30;99.90;;;;;;5051036;28;20093;-65
2021/07/25 05:31:07;;;;;;;3.90;2.20;;;23.30;99.90;;;;;;5051158;28;20040;-67
2021/07/25 05:33:32;;;;;;;2.65;2.10;;;23.30;99.90;;;;;;5051225;28;20100;-66
2021/07/25 05:35:58;;;;;;;3.20;2.17;;;23.30;99.90;;;;;;5050908;28;20103;-67
2021/07/25 05:38:24;;;;;;;3.40;1.98;;;23.30;99.90;;;;;;5051127;28;20025;-67
2021/07/25 05:40:50;;;;;;;2.85;2.03;;;23.30;99.90;;;;;;5051819;28;20024;-67
2021/07/25 05:43:16;;;;;;;3.15;2.10;;;23.30;99.90;;;;;;5051515;28;20086;-67
2021/07/25 05:45:42;;;;;;;3.40;1.90;;;23.30;99.90;;;;;;5051398;28;20432;-66
2021/07/25 05:48:09;;;;;;;2.97;1.95;;;23.30;99.90;;;;;;5051129;28;20444;-67
2021/07/25 05:50:34;;;;;;;3.58;1.92;;;23.30;99.90;;;;;;5050858;28;20076;-65
2021/07/25 05:53:01;;;;;;;3.50;2.20;;;23.20;99.90;;;;;;5050558;28;20354;-66
2021/07/25 05:55:29;;;;;;;3.22;2.00;;;23.30;99.90;;;;;;5050916;28;20025;-65
2021/07/25 05:57:55;;;;;;;2.90;2.20;;;23.30;99.90;;;;;;5051129;28;20025;-66
2021/07/25 06:00:21;;;;;;;3.17;1.98;;;23.30;99.90;;;;;;5051043;28;20033;-66
2021/07/25 06:03:00;;;;;;;2.10;1.77;;;23.30;99.90;;;;;;5051433;28;20505;-66
2021/07/25 06:05:36;;;;;;;3.95;1.90;;;23.20;99.90;;;;;;5051044;28;20037;-66
2021/07/25 06:08:07;;;;;;;3.05;2.08;;;23.30;99.90;;;;;;5050411;28;20151;-66
2021/07/25 06:10:35;;;;;;;2.35;1.85;;;23.30;99.90;;;;;;5050733;28;20029;-65
2021/07/25 06:13:03;;;;;;;3.08;2.10;;;23.30;99.90;;;;;;5050917;28;20025;-66
2021/07/25 06:15:31;;;;;;;2.03;1.70;;;23.30;99.90;;;;;;5051065;28;20039;-65
2021/07/25 06:17:57;;;;;;;2.80;2.15;;;23.30;99.90;;;;;;5050754;28;20032;-66
2021/07/25 06:20:23;;;;;;;4.25;2.00;;;23.30;99.90;;;;;;5050888;28;20441;-66
2021/07/25 06:22:51;;;;;;;2.88;1.80;;;23.30;99.90;;;;;;5050932;28;20048;-66
2021/07/25 06:25:22;;;;;;;2.58;2.17;;;23.20;99.90;;;;;;5049998;28;20025;-66
2021/07/25 06:27:53;;;;;;;2.78;2.28;;;23.30;99.90;;;;;;5051442;28;20033;-67
2021/07/25 06:30:20;;;;;;;2.47;1.92;;;23.30;99.90;;;;;;5055145;28;20067;-67
2021/07/25 06:33:04;;;;;;;4.32;1.98;;;23.30;99.90;;;;;;5055103;28;20031;-65
2021/07/25 06:35:38;;;;;;;4.75;2.30;;;23.30;99.90;;;;;;5054236;28;20059;-67
2021/07/25 06:38:12;;;;;;;3.00;2.10;;;23.30;99.90;;;;;;5054176;28;20513;-67
2021/07/25 06:40:40;;;;;;;;;;;23.30;99.90;;;;;;5054465;28;20489;-67
2021/07/25 06:43:06;;;;;;;2.30;1.85;;;23.30;99.90;;;;;;5054085;28;19909;-67
2021/07/25 06:45:33;;;;;;;2.78;2.10;;;23.30;99.90;;;;;;5053906;28;20025;-67
2021/07/25 06:47:59;;;;;;;2.20;1.80;;;23.30;99.90;;;;;;5054268;28;20031;-66
2021/07/25 06:50:26;;;;;;;3.47;2.05;;;23.30;99.90;;;;;;5054205;28;20104;-67
2021/07/25 06:52:54;;;;;;;3.33;1.80;;;23.30;99.90;;;;;;5053631;28;20037;-66
2021/07/25 06:55:21;;;;;;;2.38;1.90;;;23.30;99.90;;;;;;5054151;28;20029;-71
2021/07/25 06:57:47;;;;;;;3.33;1.92;;;23.30;99.90;;;;;;5054351;28;20028;-65
2021/07/25 07:00:13;;;;;;;3.38;1.70;;;23.40;99.90;;;;;;5053843;28;20029;-68
2021/07/25 07:02:53;;;;;;;2.08;1.73;;;23.40;99.90;;;;;;5053907;28;20083;-68
2021/07/25 07:05:20;;;;;;;3.35;1.70;;;23.30;99.90;;;;;;5054194;28;20473;-70
2021/07/25 07:07:47;;;;;;;3.45;1.70;;;23.40;99.90;;;;;;5054166;28;20025;-68
2021/07/25 07:10:14;;;;;;;2.05;1.80;;;23.40;99.90;;;;;;5053439;28;20151;-64
2021/07/25 07:12:40;;;;;;;2.90;1.80;;;23.40;99.90;;;;;;5052245;28;20037;-66
2021/07/25 07:15:08;;;;;;;3.10;2.05;;;23.40;99.90;;;;;;5051972;28;20032;-72
2021/07/25 07:17:34;;;;;;;5.32;2.15;;;23.40;99.90;;;;;;5053468;28;20378;-66
2021/07/25 07:19:59;;;;;;;4.97;1.90;;;23.40;99.90;;;;;;5053539;28;20495;-68
2021/07/25 07:22:29;;;;;;;5.38;2.17;;;23.40;99.90;;;;;;5053568;28;20043;-66
2021/07/25 07:24:56;;;;;;;4.25;2.10;;;23.30;99.90;;;;;;5052056;28;20393;-67
2021/07/25 07:27:23;;;;;;;5.35;2.22;;;23.30;99.90;;;;;;5053404;28;20021;-66
2021/07/25 07:29:49;;;;;;;2.50;2.17;;;23.30;99.90;;;;;;5051810;28;20063;-62
2021/07/25 07:32:15;;;;;;;4.30;2.10;;;23.30;99.90;;;;;;5053678;28;20025;-65
2021/07/25 07:34:40;;;;;;;4.05;1.95;;;23.30;99.90;;;;;;5053120;28;20036;-64
2021/07/25 07:37:06;;;;;;;4.30;1.85;;;23.20;99.90;;;;;;5052623;28;20029;-63
2021/07/25 07:39:32;;;;;;;7.50;2.03;;;23.30;99.90;;;;;;5052881;28;20021;-63
2021/07/25 07:41:58;;;;;;;6.75;2.00;;;23.30;99.90;;;;;;5052804;28;20094;-66
2021/07/25 07:44:23;;;;;;;6.80;2.10;;;23.30;99.90;;;;;;5049898;28;20091;-65
2021/07/25 07:46:49;;;;;;;5.78;2.40;;;23.30;99.90;;;;;;5051580;28;20025;-66
2021/07/25 07:49:14;;;;;;;6.65;2.22;;;23.30;99.90;;;;;;5051492;28;20112;-66
2021/07/25 07:51:40;;;;;;;3.42;2.10;;;23.30;99.90;;;;;;5052717;28;20104;-66
2021/07/25 07:54:06;;;;;;;3.83;2.10;;;23.40;99.90;;;;;;5052087;28;20531;-63
2021/07/25 07:56:35;;;;;;;4.55;2.22;;;23.40;99.90;;;;;;5052646;28;20028;-63
2021/07/25 07:59:01;;;;;;;6.55;2.15;;;23.40;99.90;;;;;;5052012;28;20025;-66
2021/07/25 08:01:27;;;;;;;3.80;2.40;;;23.40;99.90;;;;;;5051130;28;20104;-69
2021/07/25 08:03:53;;;;;;;3.85;2.13;;;23.40;99.90;;;;;;5052520;28;20171;-67
2021/07/25 08:06:18;;;;;;;5.43;2.55;;;23.30;99.90;;;;;;5052972;28;20037;-66
2021/07/25 08:08:44;;;;;;;5.75;2.50;;;23.30;99.90;;;;;;5052614;28;20029;-67
2021/07/25 08:11:10;;;;;;;6.85;2.83;;;23.30;99.90;;;;;;5052580;28;20032;-65
2021/07/25 08:13:35;;;;;;;5.72;2.35;;;23.40;99.90;;;;;;5052772;28;20432;-67
2021/07/25 08:16:01;;;;;;;6.05;2.50;;;23.40;99.90;;;;;;5052644;28;20020;-67
2021/07/25 08:18:27;;;;;;;8.18;2.40;;;23.40;99.90;;;;;;5052616;28;20037;-67
2021/07/25 08:20:52;;;;;;;6.70;3.05;;;23.40;99.90;;;;;;5052545;28;20017;-64
2021/07/25 08:23:18;;;;;;;6.20;3.00;;;23.40;99.90;;;;;;5072581;28;20123;-65
2021/07/25 08:25:44;;;;;;;6.03;2.45;;;23.40;99.90;;;;;;5072343;28;20095;-67
2021/07/25 08:28:09;;;;;;;4.78;2.60;;;23.40;99.90;;;;;;5072216;28;20498;-64
2021/07/25 08:30:35;;;;;;;5.50;2.80;;;23.40;99.90;;;;;;5072267;28;20013;-65
2021/07/25 08:33:01;;;;;;;8.95;2.60;;;23.40;99.90;;;;;;5072172;28;20542;-65
2021/07/25 08:35:26;;;;;;;4.95;2.53;;;23.40;99.90;;;;;;5072233;28;20461;-66
2021/07/25 08:37:52;;;;;;;5.57;2.80;;;23.50;99.90;;;;;;5070768;28;20115;-65
2021/07/25 08:40:21;;;;;;;8.07;2.50;;;23.40;99.90;;;;;;5053805;28;20072;-64
2021/07/25 08:43:08;;;;;;;5.25;2.67;;;23.40;99.90;;;;;;5052260;28;20041;-64
2021/07/25 08:45:39;;;;;;;38.25;3.15;;;23.40;99.90;;;;;;5048334;28;20029;-68
2021/07/25 08:48:18;;;;;;;8.65;2.75;;;23.40;99.90;;;;;;5051842;28;20108;-67
2021/07/25 08:50:49;;;;;;;7.88;2.65;;;23.60;99.90;;;;;;5051840;28;20440;-69
2021/07/25 08:53:18;;;;;;;6.85;2.80;;;23.80;99.90;;;;;;5051587;28;20078;-68
2021/07/25 08:55:46;;;;;;;6.38;2.80;;;23.80;99.90;;;;;;5051931;28;20062;-68
2021/07/25 08:58:13;;;;;;;6.85;3.13;;;23.80;99.90;;;;;;5051613;28;20063;-68
2021/07/25 09:00:40;;;;;;;4.35;2.55;;;23.80;99.90;;;;;;5051839;28;20032;-69
2021/07/25 09:03:09;;;;;;;8.02;3.00;;;23.70;99.90;;;;;;5051334;28;20556;-71
2021/07/25 09:05:35;;;;;;;8.90;2.53;;;23.70;99.90;;;;;;5051600;28;20029;-69
2021/07/25 09:08:04;;;;;;;8.00;2.72;;;23.70;99.90;;;;;;5051283;28;20502;-69
2021/07/25 09:10:31;;;;;;;5.70;2.80;;;23.70;99.90;;;;;;5051747;28;20017;-68
2021/07/25 09:12:57;;;;;;;4.70;2.60;;;23.60;99.90;;;;;;5052661;28;20017;-69
2021/07/25 09:15:29;;;;;;;8.25;2.50;;;23.60;99.90;;;;;;5071671;28;20031;-69
2021/07/25 09:17:57;;;;;;;5.50;2.70;;;23.70;99.90;;;;;;5071287;28;20473;-69
2021/07/25 09:20:25;;;;;;;4.93;2.67;;;23.70;99.90;;;;;;5063386;28;20075;-70
2021/07/25 09:22:52;;;;;;;7.60;2.67;;;23.70;99.90;;;;;;5051268;28;20036;-71
2021/07/25 09:25:21;;;;;;;4.50;2.67;;;23.70;99.90;;;;;;5051788;28;20061;-69
2021/07/25 09:27:48;;;;;;;6.70;3.08;;;23.70;99.90;;;;;;5051402;28;20397;-68
2021/07/25 09:30:17;;;;;;;6.60;2.58;;;23.70;99.90;;;;;;5050918;28;20017;-68
2021/07/25 09:32:44;;;;;;;6.13;2.55;;;23.70;99.90;;;;;;5049210;28;20075;-69
2021/07/25 09:35:27;;;;;;;5.57;2.75;;;23.60;99.90;;;;;;5051167;28;20028;-73
2021/07/25 09:38:09;;;;;;;6.72;2.47;;;23.60;99.90;;;;;;5051148;28;20096;-70
2021/07/25 09:40:40;;;;;;;6.35;2.80;;;23.70;99.90;;;;;;5053123;28;20017;-73
2021/07/25 09:43:07;;;;;;;5.65;2.42;;;23.70;99.90;;;;;;5061022;28;20036;-70
2021/07/25 09:45:33;;;;;;;4.32;2.30;;;23.70;99.90;;;;;;5053470;28;20059;-71
2021/07/25 09:48:09;;;;;;;4.07;2.28;;;23.70;99.90;;;;;;5049889;28;20056;-72
2021/07/25 09:50:35;;;;;;;22.00;2.67;;;23.90;99.90;;;;;;5051728;28;20116;-75
2021/07/25 09:53:01;;;;;;;3.75;2.00;;;23.90;99.90;;;;;;5050612;28;20108;-73
2021/07/25 09:55:31;;;;;;;3.60;2.10;;;23.90;99.90;;;;;;5051211;28;20025;-76
2021/07/25 09:57:57;;;;;;;3.95;2.47;;;24.00;99.90;;;;;;5050866;28;20144;-66
2021/07/25 10:00:22;;;;;;;4.45;2.30;;;24.30;99.90;;;;;;5050469;28;20060;-62
2021/07/25 10:02:49;;;;;;;6.40;1.90;;;24.30;99.90;;;;;;5051663;28;20036;-64
2021/07/25 10:05:19;;;;;;;4.72;2.17;;;24.40;99.90;;;;;;5054531;28;20066;-64
2021/07/25 10:07:46;;;;;;;9.23;2.38;;;24.50;99.90;;;;;;5054812;28;20029;-64
2021/07/25 10:10:14;;;;;;;10.68;2.25;;;24.50;99.90;;;;;;5054834;28;20033;-65
2021/07/25 10:12:42;;;;;;;13.40;2.15;;;24.70;99.90;;;;;;5054565;28;20359;-64
2021/07/25 10:15:10;;;;;;;3.70;2.15;;;24.40;99.90;;;;;;5054214;28;20032;-64
2021/07/25 10:17:44;;;;;;;5.35;2.40;;;23.70;99.90;;;;;;5054515;28;20170;-64
2021/07/25 10:20:12;;;;;;;3.08;2.10;;;23.80;99.90;;;;;;5054666;28;20037;-64
2021/07/25 10:22:39;;;;;;;5.22;1.90;;;23.70;99.90;;;;;;5054446;28;20516;-63
2021/07/25 10:25:07;;;;;;;2.40;1.92;;;23.70;99.90;;;;;;5052818;28;20044;-63
2021/07/25 10:27:34;;;;;;;11.63;2.42;;;23.90;99.90;;;;;;5054520;28;20017;-64
2021/07/25 10:30:10;;;;;;;4.95;2.28;;;23.60;99.90;;;;;;5054411;28;20016;-64
2021/07/25 10:32:43;;;;;;;3.90;2.70;;;23.50;99.90;;;;;;5052475;28;20033;-64
2021/07/25 10:35:12;;;;;;;4.25;2.25;;;23.80;99.90;;;;;;5053066;28;20029;-64
2021/07/25 10:37:39;;;;;;;5.15;2.55;;;24.40;99.90;;;;;;5053876;28;20374;-65
2021/07/25 10:40:06;;;;;;;3.72;2.58;;;24.30;99.90;;;;;;5054042;28;20067;-65
2021/07/25 10:42:55;;;;;;;3.75;2.38;;;24.20;99.90;;;;;;5054560;28;20093;-65
2021/07/25 10:45:20;;;;;;;4.47;2.50;;;23.70;99.90;;;;;;5054042;28;20037;-67
2021/07/25 10:47:47;;;;;;;4.95;2.55;;;23.40;99.90;;;;;;5054664;28;20047;-65
2021/07/25 10:50:20;;;;;;;4.15;2.28;;;23.90;99.90;;;;;;5053895;28;20379;-73
2021/07/25 10:52:55;;;;;;;4.60;2.38;;;24.30;99.90;;;;;;5054633;28;20036;-65
2021/07/25 10:55:48;;;;;;;5.15;2.22;;;24.40;99.90;;;;;;5054236;28;20025;-67
2021/07/25 10:58:20;;;;;;;4.28;2.10;;;24.10;99.90;;;;;;5052920;28;20497;-63
2021/07/25 11:00:56;;;;;;;3.72;2.08;;;24.40;99.90;;;;;;5054367;28;20029;-62
2021/07/25 11:03:24;;;;;;;3.20;2.10;;;24.50;99.90;;;;;;5054194;28;20041;-65
2021/07/25 11:05:59;;;;;;;4.25;2.55;;;24.60;99.90;;;;;;5053597;28;20033;-66
2021/07/25 11:08:34;;;;;;;3.90;2.50;;;24.40;99.90;;;;;;5053027;28;20032;-65
2021/07/25 11:11:00;;;;;;;3.00;2.60;;;23.60;99.90;;;;;;5033699;28;20104;-67
2021/07/25 11:13:41;;;;;;;4.35;2.55;;;23.20;99.90;;;;;;5049941;28;20037;-65
2021/07/25 11:16:32;;;;;;;4.45;2.50;;;23.20;99.90;;;;;;5052653;28;20029;-64
2021/07/25 11:19:03;;;;;;;2.95;2.20;;;23.10;99.90;;;;;;5053525;28;20025;-73
2021/07/25 11:21:36;;;;;;;4.15;2.33;;;23.80;99.90;;;;;;5053734;28;20100;-65
2021/07/25 11:24:26;;;;;;;3.22;2.60;;;23.90;99.90;;;;;;5053325;28;20135;-66
2021/07/25 11:26:53;;;;;;;3.03;2.17;;;23.80;99.90;;;;;;5052221;28;20028;-65
2021/07/25 11:29:33;;;;;;;3.67;2.53;;;24.10;99.90;;;;;;5054087;28;20025;-66
2021/07/25 11:32:00;;;;;;;3.08;2.00;;;24.20;99.90;;;;;;5053489;28;20025;-70
2021/07/25 11:34:29;;;;;;;3.25;2.28;;;24.30;99.90;;;;;;5053385;28;20035;-77
2021/07/25 11:37:03;;;;;;;3.13;2.05;;;24.40;99.90;;;;;;5053024;28;20377;-73
2021/07/25 11:39:30;;;;;;;3.20;2.25;;;24.40;99.90;;;;;;5053677;28;20146;-73
2021/07/25 11:41:56;;;;;;;3.45;2.03;;;24.50;99.90;;;;;;5052405;28;20094;-65
2021/07/25 11:44:29;;;;;;;2.70;2.13;;;24.60;99.90;;;;;;5051781;28;20058;-66
2021/07/25 11:47:03;;;;;;;4.57;2.22;;;24.60;99.90;;;;;;5049699;28;20052;-68
2021/07/25 11:49:36;;;;;;;3.53;2.10;;;24.70;99.90;;;;;;5053353;28;20025;-76
2021/07/25 11:52:11;;;;;;;2.20;1.70;;;24.70;99.90;;;;;;5052961;28;20029;-73
2021/07/25 11:54:41;;;;;;;3.08;2.03;;;24.70;99.90;;;;;;5052079;28;20444;-65
2021/07/25 11:57:07;;;;;;;3.92;2.00;;;24.80;99.90;;;;;;5051563;28;20029;-67
2021/07/25 11:59:38;;;;;;;2.67;1.80;;;24.80;99.90;;;;;;5052580;28;20082;-68
2021/07/25 12:02:05;;;;;;;3.45;2.17;;;24.90;99.90;;;;;;5052745;28;20029;-68
2021/07/25 12:04:41;;;;;;;2.72;1.98;;;24.90;99.90;;;;;;5052737;28;20029;-65
2021/07/25 12:07:14;;;;;;;2.60;2.05;;;24.80;99.90;;;;;;5052440;28;20017;-65
2021/07/25 12:09:44;;;;;;;3.00;1.65;;;24.90;99.90;;;;;;5052448;28;20437;-66
2021/07/25 12:12:18;;;;;;;3.00;1.90;;;24.90;99.90;;;;;;5052635;28;20793;-65
2021/07/25 12:14:47;;;;;;;2.22;1.83;;;24.90;99.90;;;;;;5052814;28;20107;-65
2021/07/25 12:17:13;;;;;;;4.97;2.20;;;25.00;99.90;;;;;;5052428;28;20473;-66
2021/07/25 12:19:41;;;;;;;2.53;1.83;;;25.00;99.90;;;;;;5052527;28;20108;-66
2021/07/25 12:22:11;;;;;;;4.15;2.22;;;24.90;99.90;;;;;;5052101;28;20036;-66
2021/07/25 12:24:42;;;;;;;2.55;1.90;;;25.00;99.90;;;;;;5052659;28;20037;-68
2021/07/25 12:27:32;;;;;;;4.43;2.45;;;24.90;99.90;;;;;;5051993;28;20021;-66
2021/07/25 12:30:10;;;;;;;2.20;1.95;;;24.90;99.90;;;;;;5052124;28;20029;-65
2021/07/25 12:32:36;;;;;;;3.33;2.40;;;25.00;99.90;;;;;;5052254;28;20032;-72
2021/07/25 12:35:11;;;;;;;1.98;1.77;;;24.90;99.90;;;;;;5059276;28;20054;-66
2021/07/25 12:37:59;;;;;;;2.90;1.98;;;25.00;99.90;;;;;;5052179;28;20054;-66
2021/07/25 12:40:30;;;;;;;2.97;2.40;;;25.00;99.90;;;;;;5052073;28;20377;-66
2021/07/25 12:42:59;;;;;;;1.92;1.60;;;25.00;99.90;;;;;;5051922;28;20429;-66
2021/07/25 12:45:33;;;;;;;2.67;1.90;;;25.00;99.90;;;;;;5052150;28;20434;-66
2021/07/25 12:48:17;;;;;;;3.30;2.10;;;25.10;99.90;;;;;;5051744;28;20033;-67
2021/07/25 12:50:54;;;;;;;2.65;2.00;;;25.00;99.90;;;;;;5057699;28;20385;-68
2021/07/25 12:53:41;;;;;;;2.58;1.75;;;25.00;99.90;;;;;;5064946;28;20497;-66
2021/07/25 12:56:18;;;;;;;2.20;1.80;;;25.00;99.90;;;;;;5071348;28;20395;-67